Time;durP1;ratioP1;P1;durP2;ratioP2;P2;SDS_P1;SDS_P2;PMS_P1;PMS_P2;Temp;Humidity;BMP_temperature;BMP_pressure;BME280_temperature;BME280_humidity;BME280_pressure;Samples;Min_cycle;Max_cycle;Signal;HPM_P1;HPM_P2
2021/03/12 00:00:39;;;;;;;21.15;3.65;;;6.40;90.00;;;;;;5020016;28;20170;-51
2021/03/12 00:03:09;;;;;;;16.70;3.65;;;6.40;90.10;;;;;;5024474;28;20517;-43
2021/03/12 00:05:44;;;;;;;19.13;3.33;;;6.40;90.10;;;;;;5004151;28;20080;-48
2021/03/12 00:08:10;;;;;;;20.25;4.20;;;6.40;90.10;;;;;;5025890;28;20041;-46
2021/03/12 00:10:36;;;;;;;15.45;3.38;;;6.50;90.10;;;;;;5023850;28;20544;-46
2021/03/12 00:13:02;;;;;;;13.82;3.08;;;6.40;90.00;;;;;;5004292;28;20069;-50
2021/03/12 00:15:29;;;;;;;20.00;3.72;;;6.40;90.00;;;;;;5002909;28;20451;-49
2021/03/12 00:17:54;;;;;;;22.92;3.63;;;6.50;89.60;;;;;;5007413;28;20093;-49
2021/03/12 00:20:24;;;;;;;19.27;4.20;;;6.50;89.70;;;;;;5005839;28;20052;-47
2021/03/12 00:22:51;;;;;;;18.08;3.55;;;6.50;89.80;;;;;;5002146;28;20077;-43
2021/03/12 00:25:22;;;;;;;16.92;3.72;;;6.50;88.90;;;;;;5004720;28;20953;-48
2021/03/12 00:27:48;;;;;;;21.60;4.28;;;6.60;88.10;;;;;;5004220;28;20052;-47
2021/03/12 00:30:14;;;;;;;22.05;4.00;;;6.60;88.00;;;;;;5005548;28;20045;-48
2021/03/12 00:32:40;;;;;;;15.35;3.67;;;6.60;87.80;;;;;;5003898;28;20576;-46
2021/03/12 00:35:07;;;;;;;17.33;3.35;;;6.50;87.80;;;;;;4986684;28;20053;-51
2021/03/12 00:37:35;;;;;;;11.88;3.13;;;6.50;88.10;;;;;;5003591;28;20049;-48
2021/03/12 00:40:04;;;;;;;15.10;3.13;;;6.40;87.60;;;;;;4996973;28;20045;-48
2021/03/12 00:42:30;;;;;;;13.13;3.00;;;6.50;87.30;;;;;;5003750;28;20053;-48
2021/03/12 00:44:56;;;;;;;19.73;3.67;;;6.50;86.80;;;;;;5004438;28;20394;-47
2021/03/12 00:47:21;;;;;;;10.60;3.13;;;6.50;87.50;;;;;;5001144;28;20469;-46
2021/03/12 00:49:47;;;;;;;9.75;3.15;;;6.50;87.70;;;;;;5004980;28;20071;-50
2021/03/12 00:52:13;;;;;;;13.18;3.05;;;6.60;86.90;;;;;;5005113;28;20042;-49
2021/03/12 00:54:39;;;;;;;16.67;3.33;;;6.60;86.70;;;;;;5003474;28;20052;-50
2021/03/12 00:57:05;;;;;;;19.90;3.50;;;6.50;86.50;;;;;;5004284;28;20053;-51
2021/03/12 00:59:31;;;;;;;17.80;4.05;;;6.60;85.80;;;;;;5006692;28;20455;-50
2021/03/12 01:01:56;;;;;;;16.38;3.33;;;6.50;86.20;;;;;;5003266;28;20134;-45
2021/03/12 01:04:22;;;;;;;15.77;3.42;;;6.50;85.90;;;;;;5003262;28;20776;-50
2021/03/12 01:06:48;;;;;;;13.38;3.25;;;6.50;86.70;;;;;;4985674;28;20068;-48
2021/03/12 01:09:14;;;;;;;14.32;3.05;;;6.50;86.70;;;;;;5004694;28;20071;-47
2021/03/12 01:11:40;;;;;;;10.38;2.88;;;6.50;86.00;;;;;;5002323;28;20061;-44
2021/03/12 01:14:06;;;;;;;12.50;3.22;;;6.60;85.70;;;;;;5000791;28;20050;-49
2021/03/12 01:16:32;;;;;;;14.32;3.13;;;6.60;85.70;;;;;;5004040;28;20041;-45
2021/03/12 01:18:58;;;;;;;14.00;3.17;;;6.50;85.80;;;;;;4986107;28;20073;-50
2021/03/12 01:21:24;;;;;;;13.07;3.03;;;6.60;85.80;;;;;;5003343;28;20133;-49
2021/03/12 01:23:50;;;;;;;13.32;2.97;;;6.50;86.10;;;;;;4983004;28;20057;-43
2021/03/12 01:26:17;;;;;;;14.85;2.95;;;6.50;85.60;;;;;;4999529;28;20113;-50
2021/03/12 01:28:42;;;;;;;8.38;2.78;;;6.50;86.00;;;;;;5001152;28;20065;-45
2021/03/12 01:31:09;;;;;;;14.68;3.15;;;6.50;85.60;;;;;;5001680;28;20041;-49
2021/03/12 01:33:34;;;;;;;9.13;2.55;;;6.40;84.70;;;;;;5004604;28;20133;-52
2021/03/12 01:36:00;;;;;;;12.32;2.42;;;6.50;85.10;;;;;;5001097;28;20073;-48
2021/03/12 01:38:26;;;;;;;9.70;2.75;;;6.40;85.90;;;;;;4999360;28;20540;-47
2021/03/12 01:41:07;;;;;;;10.70;2.22;;;6.40;85.60;;;;;;4998111;28;20052;-46
2021/03/12 01:43:33;;;;;;;14.40;2.53;;;6.40;84.90;;;;;;5004376;28;20121;-47
2021/03/12 01:46:00;;;;;;;19.45;3.50;;;6.40;85.10;;;;;;5000980;28;20129;-43
2021/03/12 01:48:26;;;;;;;12.27;3.67;;;6.30;85.50;;;;;;5000265;28;20418;-46
2021/03/12 01:51:03;;;;;;;14.20;2.47;;;6.30;86.00;;;;;;5002303;28;20046;-46
2021/03/12 01:53:37;;;;;;;12.02;2.40;;;6.20;86.20;;;;;;5002176;28;20140;-49
2021/03/12 01:56:05;;;;;;;11.48;2.80;;;6.30;85.90;;;;;;5001648;28;20142;-46
2021/03/12 01:58:31;;;;;;;13.70;3.05;;;6.30;85.90;;;;;;5001536;28;20072;-47
2021/03/12 02:00:58;;;;;;;10.43;2.30;;;6.20;85.90;;;;;;5002464;28;20746;-48
2021/03/12 02:03:28;;;;;;;11.80;3.20;;;6.10;86.40;;;;;;5002588;28;20097;-49
2021/03/12 02:05:55;;;;;;;14.20;3.45;;;6.10;86.20;;;;;;5002203;28;20046;-50
2021/03/12 02:08:30;;;;;;;10.32;2.95;;;6.10;86.30;;;;;;5000877;28;20048;-46
2021/03/12 02:10:56;;;;;;;12.30;2.97;;;6.20;86.00;;;;;;5003168;28;20049;-50
2021/03/12 02:13:35;;;;;;;12.90;3.20;;;6.20;86.30;;;;;;5002812;28;20259;-44
2021/03/12 02:16:30;;;;;;;12.23;3.90;;;6.20;86.00;;;;;;5023318;28;20449;-48
2021/03/12 02:19:33;;;;;;;9.43;3.08;;;6.20;85.50;;;;;;4960238;28;20934;-47
2021/03/12 02:22:03;;;;;;;11.95;3.13;;;6.30;85.00;;;;;;4959055;28;20101;-55
2021/03/12 02:24:48;;;;;;;13.13;3.55;;;6.30;84.60;;;;;;4961332;28;20054;-48
2021/03/12 02:27:16;;;;;;;13.43;3.28;;;6.30;85.00;;;;;;4959555;28;20404;-46
2021/03/12 02:29:49;;;;;;;12.65;3.05;;;6.30;84.60;;;;;;4959840;28;20059;-48
2021/03/12 02:32:17;;;;;;;9.18;3.42;;;6.10;85.10;;;;;;4962289;28;20121;-46
2021/03/12 02:34:45;;;;;;;12.40;3.33;;;6.20;85.20;;;;;;4959022;28;20066;-49
2021/03/12 02:37:14;;;;;;;12.25;4.47;;;6.20;84.90;;;;;;4958542;28;20050;-46
2021/03/12 02:39:45;;;;;;;11.07;2.97;;;6.20;84.40;;;;;;4963007;28;20050;-47
2021/03/12 02:42:14;;;;;;;10.07;3.15;;;6.10;85.30;;;;;;4960302;28;20133;-46
2021/03/12 02:44:42;;;;;;;11.73;2.88;;;6.10;85.40;;;;;;4958989;28;20053;-52
2021/03/12 02:47:14;;;;;;;11.30;2.72;;;6.00;85.60;;;;;;4959105;28;20244;-46
2021/03/12 02:49:40;;;;;;;10.05;3.13;;;5.90;86.20;;;;;;4959160;28;20500;-43
2021/03/12 02:52:19;;;;;;;17.70;3.65;;;5.90;85.20;;;;;;4960611;28;20043;-44
2021/03/12 02:54:46;;;;;;;10.48;3.05;;;5.90;85.20;;;;;;4972747;28;20050;-45
2021/03/12 02:57:18;;;;;;;9.40;3.05;;;5.80;85.50;;;;;;5011802;28;20483;-44
2021/03/12 03:00:18;;;;;;;12.60;3.28;;;5.70;85.60;;;;;;5021664;28;20556;-51
2021/03/12 03:02:44;;;;;;;9.50;2.75;;;5.70;85.70;;;;;;5012829;28;20065;-46
2021/03/12 03:05:11;;;;;;;15.82;3.65;;;5.80;85.70;;;;;;5023751;28;20038;-42
2021/03/12 03:07:38;;;;;;;12.80;3.35;;;5.80;86.20;;;;;;5021834;28;20045;-45
2021/03/12 03:10:10;;;;;;;12.57;3.50;;;5.80;86.60;;;;;;5001108;28;20052;-48
2021/03/12 03:12:36;;;;;;;8.82;3.38;;;5.70;87.10;;;;;;5021048;28;20049;-44
2021/03/12 03:15:05;;;;;;;7.95;3.13;;;5.70;87.50;;;;;;5023357;28;20741;-50
2021/03/12 03:17:35;;;;;;;15.45;3.50;;;5.60;87.50;;;;;;5021403;28;20046;-45
2021/03/12 03:20:08;;;;;;;14.02;3.13;;;5.60;87.40;;;;;;5020556;28;21651;-44
2021/03/12 03:22:38;;;;;;;15.00;3.75;;;5.50;88.30;;;;;;4989163;28;20180;-54
2021/03/12 03:25:07;;;;;;;16.38;2.95;;;5.50;88.10;;;;;;5018287;28;20054;-47
2021/03/12 03:27:33;;;;;;;14.05;2.80;;;5.50;87.90;;;;;;5020826;28;20184;-46
2021/03/12 03:29:58;;;;;;;12.25;2.78;;;5.50;88.00;;;;;;5021045;28;20738;-45
2021/03/12 03:32:25;;;;;;;9.98;2.80;;;5.50;87.90;;;;;;5000264;28;20045;-44
2021/03/12 03:35:13;;;;;;;17.92;3.13;;;5.40;88.50;;;;;;5022161;28;20096;-50
2021/03/12 03:37:41;;;;;;;12.25;2.95;;;5.40;88.70;;;;;;5021230;28;20464;-50
2021/03/12 03:40:08;;;;;;;17.15;3.35;;;5.40;88.80;;;;;;5023376;28;20473;-47
2021/03/12 03:42:35;;;;;;;14.07;3.78;;;5.30;88.70;;;;;;5006525;28;20060;-51
2021/03/12 03:45:07;;;;;;;22.67;3.90;;;5.30;88.80;;;;;;5026524;28;20394;-52
2021/03/12 03:47:33;;;;;;;;;;;5.30;89.00;;;;;;5024082;28;20046;-48
2021/03/12 03:50:00;;;;;;;14.80;3.47;;;5.30;89.10;;;;;;5024314;28;20619;-47
2021/03/12 03:52:52;;;;;;;15.98;2.78;;;5.20;89.30;;;;;;5025145;28;20045;-46
2021/03/12 03:55:23;;;;;;;12.23;3.45;;;5.20;88.90;;;;;;5023234;28;20041;-48
2021/03/12 03:57:49;;;;;;;12.85;2.97;;;5.10;89.10;;;;;;5025353;28;20184;-47
2021/03/12 04:00:16;;;;;;;12.75;3.28;;;5.10;89.30;;;;;;5026308;28;20142;-42
2021/03/12 04:02:44;;;;;;;16.52;3.58;;;5.00;89.60;;;;;;5005527;28;20052;-53
2021/03/12 04:05:11;;;;;;;15.30;2.75;;;5.00;89.80;;;;;;5026689;28;20406;-47
2021/03/12 04:07:38;;;;;;;13.48;2.78;;;5.00;90.00;;;;;;5024620;28;20112;-46
2021/03/12 04:10:05;;;;;;;12.70;2.88;;;4.90;90.00;;;;;;5023724;28;20379;-48
2021/03/12 04:12:32;;;;;;;22.95;4.10;;;4.90;90.10;;;;;;5004406;28;20050;-46
2021/03/12 04:14:58;;;;;;;16.33;3.30;;;4.90;90.20;;;;;;5025690;28;20454;-44
2021/03/12 04:17:24;;;;;;;14.65;3.05;;;4.90;90.10;;;;;;5024131;28;20049;-44
2021/03/12 04:20:25;;;;;;;14.85;3.38;;;4.90;90.10;;;;;;5023036;28;20182;-45
2021/03/12 04:22:52;;;;;;;15.95;3.25;;;4.90;90.10;;;;;;5025104;28;21976;-53
2021/03/12 04:25:18;;;;;;;17.17;3.33;;;4.80;90.20;;;;;;5021356;28;20053;-48
2021/03/12 04:27:44;;;;;;;18.67;3.97;;;4.80;90.40;;;;;;5022993;28;20080;-49
2021/03/12 04:30:11;;;;;;;12.65;3.35;;;4.80;90.40;;;;;;5024362;28;20045;-47
2021/03/12 04:32:37;;;;;;;11.90;2.78;;;4.80;90.40;;;;;;5026902;28;20046;-44
2021/03/12 04:35:05;;;;;;;17.92;3.00;;;4.70;90.50;;;;;;5023854;28;20049;-48
2021/03/12 04:37:31;;;;;;;18.65;3.33;;;4.80;90.30;;;;;;5020246;28;20052;-49
2021/03/12 04:39:58;;;;;;;10.82;2.50;;;4.80;90.30;;;;;;5024563;28;20044;-51
2021/03/12 04:42:24;;;;;;;13.00;2.80;;;4.80;90.30;;;;;;5024696;28;20159;-46
2021/03/12 04:44:50;;;;;;;16.95;2.97;;;4.80;90.30;;;;;;5023902;28;20033;-44
2021/03/12 04:47:16;;;;;;;14.70;3.10;;;4.80;90.30;;;;;;5028045;28;20034;-54
2021/03/12 04:49:44;;;;;;;16.42;3.40;;;4.80;90.20;;;;;;5023079;28;20051;-46
2021/03/12 04:52:12;;;;;;;12.30;3.03;;;4.80;90.20;;;;;;5005222;28;20049;-44
2021/03/12 04:54:44;;;;;;;;;;;4.80;90.20;;;;;;5024167;28;20073;-51
2021/03/12 04:57:10;;;;;;;17.17;3.50;;;4.80;90.10;;;;;;5022405;28;19928;-44
2021/03/12 04:59:48;;;;;;;10.07;2.85;;;4.80;90.10;;;;;;5024300;28;20119;-50
2021/03/12 05:02:14;;;;;;;9.38;2.25;;;4.90;90.00;;;;;;5021245;28;20057;-51
2021/03/12 05:04:41;;;;;;;12.30;2.58;;;4.80;89.90;;;;;;5020867;28;20453;-50
2021/03/12 05:07:11;;;;;;;14.82;2.63;;;4.80;90.00;;;;;;5022827;28;20092;-46
2021/03/12 05:09:40;;;;;;;19.85;2.88;;;4.80;90.00;;;;;;5022523;28;20414;-44
2021/03/12 05:12:07;;;;;;;14.80;3.13;;;4.80;90.00;;;;;;4988783;28;20057;-45
2021/03/12 05:14:35;;;;;;;13.15;2.05;;;4.80;90.00;;;;;;5003170;28;20050;-46
2021/03/12 05:17:00;;;;;;;11.88;2.47;;;4.90;90.00;;;;;;5003789;28;20450;-46
2021/03/12 05:19:26;;;;;;;13.35;2.50;;;4.90;90.00;;;;;;5002154;28;20061;-44
2021/03/12 05:21:55;;;;;;;14.75;2.92;;;5.00;90.10;;;;;;5002557;28;20458;-43
2021/03/12 05:24:21;;;;;;;18.83;3.17;;;4.80;90.10;;;;;;5004360;28;20041;-47
2021/03/12 05:26:47;;;;;;;28.13;4.15;;;4.80;90.00;;;;;;5003033;28;20054;-47
2021/03/12 05:29:13;;;;;;;19.08;3.30;;;4.80;90.10;;;;;;5003018;28;20100;-52
2021/03/12 05:31:39;;;;;;;18.08;3.38;;;4.80;90.20;;;;;;5001276;28;20203;-47
2021/03/12 05:34:05;;;;;;;11.60;2.90;;;4.80;90.10;;;;;;5005698;28;20053;-43
2021/03/12 05:36:31;;;;;;;11.95;2.85;;;4.80;90.10;;;;;;5002680;28;20042;-47
2021/03/12 05:38:57;;;;;;;13.57;4.30;;;4.90;90.10;;;;;;5002239;28;20406;-46
2021/03/12 05:41:23;;;;;;;17.63;3.60;;;4.90;90.10;;;;;;5000734;28;20057;-48
2021/03/12 05:43:48;;;;;;;15.70;3.83;;;4.90;90.10;;;;;;5003877;28;20045;-47
2021/03/12 05:46:15;;;;;;;14.40;2.80;;;4.80;90.10;;;;;;5005019;28;20118;-51
2021/03/12 05:48:43;;;;;;;13.32;2.50;;;4.80;90.10;;;;;;5003295;28;20081;-51
2021/03/12 05:51:25;;;;;;;17.92;3.40;;;4.90;90.00;;;;;;4990700;28;20046;-49
2021/03/12 05:54:15;;;;;;;12.48;3.47;;;4.90;90.10;;;;;;5004195;28;20041;-48
2021/03/12 05:56:41;;;;;;;15.63;3.17;;;4.90;90.00;;;;;;5001621;28;20054;-51
2021/03/12 05:59:07;;;;;;;15.88;3.55;;;4.90;90.10;;;;;;5004691;28;20482;-42
2021/03/12 06:01:33;;;;;;;13.75;3.03;;;4.90;90.00;;;;;;4997623;28;20164;-46
2021/03/12 06:03:59;;;;;;;18.65;3.30;;;4.90;89.90;;;;;;5002569;28;20750;-48
2021/03/12 06:06:30;;;;;;;19.80;3.73;;;5.00;90.00;;;;;;5004531;28;20954;-51
2021/03/12 06:08:56;;;;;;;15.98;2.67;;;5.00;90.00;;;;;;5002472;28;20064;-46
2021/03/12 06:11:22;;;;;;;17.00;3.25;;;5.10;90.00;;;;;;5006654;28;20057;-53
2021/03/12 06:13:52;;;;;;;14.30;3.65;;;5.10;89.80;;;;;;5021107;28;20669;-51
2021/03/12 06:16:27;;;;;;;16.50;3.97;;;5.10;89.90;;;;;;5001594;28;20045;-49
2021/03/12 06:19:15;;;;;;;22.25;4.07;;;5.20;89.70;;;;;;5021883;28;20049;-50
2021/03/12 06:21:44;;;;;;;16.73;3.85;;;5.20;89.50;;;;;;5020318;28;20060;-54
2021/03/12 06:24:32;;;;;;;19.23;3.05;;;5.30;88.90;;;;;;5022968;28;20052;-52
2021/03/12 06:27:00;;;;;;;18.88;3.85;;;5.40;89.20;;;;;;5023815;28;20052;-56
2021/03/12 06:29:36;;;;;;;18.35;2.88;;;5.40;88.80;;;;;;5020371;28;20153;-55
2021/03/12 06:32:04;;;;;;;18.27;3.30;;;5.40;88.50;;;;;;5020807;28;20041;-48
2021/03/12 06:34:31;;;;;;;21.80;10.15;;;5.50;88.30;;;;;;5003858;28;20057;-44
2021/03/12 06:36:57;;;;;;;26.60;9.50;;;5.50;87.90;;;;;;5022881;28;20090;-46
2021/03/12 06:39:34;;;;;;;30.30;14.57;;;5.50;87.90;;;;;;5001528;28;20132;-48
2021/03/12 06:42:07;;;;;;;21.48;7.15;;;5.50;87.90;;;;;;5022529;28;20045;-45
2021/03/12 06:44:34;;;;;;;20.45;5.35;;;5.50;88.00;;;;;;5020249;28;20049;-47
2021/03/12 06:47:05;;;;;;;21.30;4.30;;;5.50;88.00;;;;;;5033645;28;20102;-46
2021/03/12 06:49:32;;;;;;;17.10;4.88;;;5.50;88.10;;;;;;5029691;28;20078;-53
2021/03/12 06:52:00;;;;;;;15.07;3.67;;;5.60;88.10;;;;;;5035718;28;20049;-53
2021/03/12 06:54:28;;;;;;;13.73;4.18;;;5.60;87.20;;;;;;5040033;28;20489;-54
2021/03/12 06:56:55;;;;;;;15.52;3.63;;;5.70;87.20;;;;;;5007155;28;20119;-49
2021/03/12 06:59:34;;;;;;;20.85;6.38;;;5.70;87.20;;;;;;5038916;28;20131;-56
2021/03/12 07:02:00;;;;;;;31.52;13.50;;;5.80;87.60;;;;;;4994314;28;20045;-54
2021/03/12 07:04:28;;;;;;;28.08;8.65;;;5.90;86.40;;;;;;5028167;28;20498;-57
2021/03/12 07:06:54;;;;;;;20.85;8.93;;;6.00;86.50;;;;;;5034151;28;20033;-46
2021/03/12 07:09:22;;;;;;;20.83;7.68;;;6.00;86.20;;;;;;5031925;28;20911;-51
2021/03/12 07:11:59;;;;;;;22.92;6.47;;;6.10;86.90;;;;;;5027593;28;20153;-53
2021/03/12 07:14:30;;;;;;;18.10;4.25;;;6.10;85.90;;;;;;5040712;28;20081;-54
2021/03/12 07:16:57;;;;;;;15.18;4.50;;;6.20;85.90;;;;;;5017924;28;20981;-51
2021/03/12 07:19:23;;;;;;;16.95;4.88;;;6.20;85.20;;;;;;5031461;28;20049;-52
2021/03/12 07:21:51;;;;;;;16.65;3.97;;;6.20;86.10;;;;;;5043818;28;20091;-45
2021/03/12 07:24:23;;;;;;;45.97;23.88;;;6.30;85.20;;;;;;5046599;28;20148;-49
2021/03/12 07:26:54;;;;;;;33.05;11.95;;;6.50;85.60;;;;;;5046496;28;20088;-56
2021/03/12 07:29:24;;;;;;;17.48;5.65;;;6.60;83.50;;;;;;5034492;28;20123;-48
2021/03/12 07:31:52;;;;;;;16.00;6.13;;;6.60;82.60;;;;;;5027264;28;20551;-54
2021/03/12 07:34:20;;;;;;;19.15;5.13;;;6.70;83.10;;;;;;5034043;28;20041;-51
2021/03/12 07:36:51;;;;;;;18.08;4.57;;;6.80;83.40;;;;;;5042497;28;20045;-45
2021/03/12 07:39:25;;;;;;;18.05;4.07;;;6.80;82.50;;;;;;5028299;28;20096;-51
2021/03/12 07:41:52;;;;;;;15.85;3.42;;;6.90;82.20;;;;;;5023012;28;20048;-48
2021/03/12 07:44:20;;;;;;;19.52;4.35;;;6.90;81.90;;;;;;5017140;28;20053;-53
2021/03/12 07:46:54;;;;;;;15.48;3.78;;;6.90;81.70;;;;;;5009191;28;20103;-45
2021/03/12 07:49:28;;;;;;;13.98;3.90;;;6.90;81.60;;;;;;5013275;28;20091;-49
2021/03/12 07:51:57;;;;;;;13.07;4.25;;;6.90;80.40;;;;;;5030449;28;20406;-47
2021/03/12 07:54:39;;;;;;;16.10;4.22;;;7.10;81.50;;;;;;5025715;28;20045;-46
2021/03/12 07:57:08;;;;;;;57.92;39.63;;;7.20;80.20;;;;;;5031989;28;20049;-58
2021/03/12 07:59:47;;;;;;;35.97;17.20;;;7.40;80.70;;;;;;5020907;28;20085;-52
2021/03/12 08:02:16;;;;;;;18.80;7.35;;;7.60;78.00;;;;;;5028597;28;20064;-50
2021/03/12 08:04:43;;;;;;;17.00;5.90;;;7.80;77.80;;;;;;5008803;28;20053;-47
2021/03/12 08:07:19;;;;;;;18.58;5.25;;;7.90;78.40;;;;;;5017185;28;20158;-46
2021/03/12 08:09:47;;;;;;;19.23;4.20;;;8.10;76.70;;;;;;5033006;28;20379;-49
2021/03/12 08:12:31;;;;;;;20.30;3.92;;;8.10;76.90;;;;;;5021439;28;20123;-47
2021/03/12 08:15:12;;;;;;;15.63;3.58;;;8.20;76.00;;;;;;5025801;28;20040;-49
2021/03/12 08:17:38;;;;;;;13.27;3.65;;;8.40;75.30;;;;;;5035097;28;20123;-46
2021/03/12 08:20:30;;;;;;;20.90;3.85;;;8.80;76.30;;;;;;5003111;28;20132;-50
2021/03/12 08:22:57;;;;;;;;;;;8.70;73.10;;;;;;5017147;28;20045;-53
2021/03/12 08:25:32;;;;;;;13.77;3.17;;;8.90;73.00;;;;;;5003338;28;20560;-55
2021/03/12 08:28:07;;;;;;;;;;;8.90;73.00;;;;;;5010666;28;20629;-58
2021/03/12 08:30:33;;;;;;;15.65;3.42;;;9.10;71.70;;;;;;5013813;28;19921;-58
2021/03/12 08:36:40;;;;;;;15.07;3.30;;;8.60;71.50;;;;;;5001205;28;20035;-57
2021/03/12 08:39:28;;;;;;;14.60;3.42;;;8.10;74.30;;;;;;5013390;28;21510;-58
2021/03/12 08:41:54;;;;;;;11.43;3.15;;;7.90;75.20;;;;;;5019713;28;20049;-58
2021/03/12 08:44:32;;;;;;;17.17;4.07;;;8.10;75.60;;;;;;5014218;28;21252;-58
2021/03/12 08:47:00;;;;;;;20.58;3.70;;;8.00;75.80;;;;;;5017885;28;20057;-59
2021/03/12 08:49:28;;;;;;;15.07;4.20;;;8.00;75.70;;;;;;5019721;28;20045;-58
2021/03/12 08:51:53;;;;;;;12.63;3.00;;;8.20;76.10;;;;;;5002765;28;20067;-59
2021/03/12 08:54:28;;;;;;;13.55;3.47;;;8.20;75.60;;;;;;5008527;28;20045;-59
2021/03/12 08:57:48;;;;;;;11.93;3.30;;;8.30;75.30;;;;;;5016275;28;20046;-60
2021/03/12 09:00:33;;;;;;;21.13;4.55;;;8.30;74.80;;;;;;4961924;28;20105;-58
2021/03/12 09:03:13;;;;;;;15.52;3.25;;;8.00;75.80;;;;;;5016135;28;20136;-59
2021/03/12 09:06:06;;;;;;;15.23;3.70;;;7.90;76.00;;;;;;4990103;28;20077;-59
2021/03/12 09:08:52;;;;;;;19.20;3.67;;;7.80;76.60;;;;;;4991859;28;20061;-61
2021/03/12 09:11:25;;;;;;;;;;;8.00;76.90;;;;;;5010415;28;21202;-61
2021/03/12 09:13:53;;;;;;;16.67;3.63;;;8.10;75.70;;;;;;5018146;28;20047;-60
2021/03/12 09:16:25;;;;;;;12.32;3.40;;;8.20;76.50;;;;;;4992033;28;20053;-59
2021/03/12 09:18:53;;;;;;;13.65;3.38;;;7.90;75.70;;;;;;4998838;28;20132;-59
2021/03/12 09:21:21;;;;;;;13.75;3.58;;;8.00;76.90;;;;;;4998184;28;20054;-58
2021/03/12 09:27:29;;;;;;;16.92;3.90;;;7.90;76.60;;;;;;5000046;28;20769;-60
2021/03/12 09:29:55;;;;;;;13.73;4.15;;;8.30;77.20;;;;;;5000327;28;20061;-60
2021/03/12 09:32:21;;;;;;;17.40;4.97;;;8.90;75.10;;;;;;5000103;28;21062;-61
2021/03/12 09:34:52;;;;;;;21.50;4.68;;;9.10;72.10;;;;;;5001215;28;20052;-60
2021/03/12 09:37:18;;;;;;;19.50;4.28;;;9.30;73.00;;;;;;5003146;23;20058;-59
2021/03/12 09:39:43;;;;;;;15.73;3.70;;;9.30;72.50;;;;;;4990563;28;20057;-60
2021/03/12 09:42:11;;;;;;;20.52;4.43;;;9.20;72.40;;;;;;5004745;28;20050;-61
2021/03/12 09:44:38;;;;;;;14.90;4.72;;;9.10;72.30;;;;;;5000836;28;20057;-59
2021/03/12 09:47:06;;;;;;;21.60;4.82;;;8.90;72.70;;;;;;4988064;28;20080;-59
2021/03/12 09:49:37;;;;;;;20.52;5.53;;;8.60;73.40;;;;;;4997812;28;20521;-58
2021/03/12 09:52:07;;;;;;;20.15;4.68;;;8.50;74.20;;;;;;4998914;28;20052;-60
2021/03/12 09:54:34;;;;;;;18.17;4.05;;;8.50;75.20;;;;;;5007522;28;20049;-60
2021/03/12 09:57:04;;;;;;;19.10;4.55;;;8.40;74.90;;;;;;4989400;28;20421;-60
2021/03/12 09:59:32;;;;;;;21.38;8.48;;;8.50;76.10;;;;;;4999457;28;20057;-52
2021/03/12 10:02:04;;;;;;;67.38;45.58;;;8.50;75.40;;;;;;4930733;28;20128;-57
2021/03/12 10:04:38;;;;;;;32.83;12.27;;;8.50;75.50;;;;;;4995903;28;20041;-56
2021/03/12 10:07:10;;;;;;;16.20;4.93;;;8.40;75.20;;;;;;4999867;28;20083;-53
2021/03/12 10:09:38;;;;;;;23.23;7.03;;;8.40;75.20;;;;;;4988513;28;20065;-59
2021/03/12 10:12:06;;;;;;;23.83;5.72;;;8.50;75.90;;;;;;4991020;28;20056;-53
2021/03/12 10:14:43;;;;;;;37.92;21.23;;;8.40;74.10;;;;;;4995831;28;20137;-51
2021/03/12 10:17:26;;;;;;;23.90;8.05;;;8.50;74.90;;;;;;4989013;28;20050;-55
2021/03/12 10:23:33;;;;;;;16.70;4.35;;;9.40;73.50;;;;;;5011587;28;20047;-46
2021/03/12 10:26:04;;;;;;;21.60;5.10;;;9.00;73.00;;;;;;4991631;28;20051;-50
2021/03/12 10:28:30;;;;;;;21.05;5.28;;;8.80;73.10;;;;;;5014597;28;20056;-48
2021/03/12 10:30:58;;;;;;;20.60;4.88;;;8.80;74.00;;;;;;5012506;28;20045;-48
2021/03/12 10:33:26;;;;;;;16.65;5.22;;;9.10;74.50;;;;;;4994053;28;20781;-51
2021/03/12 10:40:18;;;;;;;21.42;3.97;;;9.20;72.30;;;;;;4987212;28;20886;-48
2021/03/12 10:43:39;;;;;;;19.20;4.93;;;9.40;72.00;;;;;;4985474;28;20169;-49
2021/03/12 10:46:07;;;;;;;29.27;5.30;;;9.20;72.70;;;;;;4977257;28;20042;-48
2021/03/12 10:48:42;;;;;;;21.33;5.20;;;9.00;73.40;;;;;;4978886;28;20102;-47
2021/03/12 10:51:44;;;;;;;18.38;4.43;;;9.10;74.20;;;;;;4964672;28;20052;-50
2021/03/12 10:54:14;;;;;;;21.00;4.70;;;9.00;73.50;;;;;;4986302;23;20418;-46
2021/03/12 10:56:48;;;;;;;22.25;5.28;;;9.00;73.80;;;;;;4993441;28;20050;-49
2021/03/12 10:59:26;;;;;;;16.27;4.40;;;9.10;72.70;;;;;;4947343;28;20047;-47
2021/03/12 11:02:39;;;;;;;24.50;4.97;;;9.20;71.50;;;;;;4960882;28;20060;-50
2021/03/12 11:05:06;;;;;;;18.23;5.03;;;9.10;72.00;;;;;;4961686;28;20129;-46
2021/03/12 11:07:32;;;;;;;21.33;4.60;;;8.90;74.10;;;;;;4976165;28;20050;-47
2021/03/12 11:09:59;;;;;;;18.88;5.00;;;8.70;71.70;;;;;;4973977;28;20057;-46
2021/03/12 11:12:26;;;;;;;24.60;5.07;;;8.60;74.90;;;;;;4960014;28;20053;-47
2021/03/12 11:14:52;;;;;;;24.27;5.03;;;8.40;77.30;;;;;;4958723;28;20058;-50
2021/03/12 11:17:18;;;;;;;21.73;5.20;;;8.20;78.40;;;;;;4978160;28;20046;-47
2021/03/12 11:19:44;;;;;;;17.23;5.35;;;8.20;78.30;;;;;;4975559;28;20050;-47
2021/03/12 11:26:01;;;;;;;12.68;4.15;;;8.20;78.00;;;;;;4973524;28;20481;-48
2021/03/12 11:28:27;;;;;;;14.85;4.15;;;7.90;79.70;;;;;;4828215;23;20424;-53
2021/03/12 11:30:54;;;;;;;16.85;4.95;;;7.50;83.30;;;;;;4962634;28;20596;-49
2021/03/12 11:33:20;;;;;;;25.75;6.65;;;7.10;87.30;;;;;;4983258;28;20053;-46
2021/03/12 11:35:50;;;;;;;22.83;5.95;;;6.90;88.50;;;;;;4998313;28;20157;-45
2021/03/12 11:38:15;;;;;;;18.63;6.60;;;6.70;89.90;;;;;;4979510;28;20043;-49
2021/03/12 11:40:42;;;;;;;27.70;7.43;;;6.60;91.10;;;;;;4972149;28;20061;-45
2021/03/12 11:43:08;;;;;;;13.23;5.13;;;6.50;92.50;;;;;;4976261;28;20073;-48
2021/03/12 11:45:36;;;;;;;13.82;4.63;;;6.30;92.20;;;;;;4978696;28;20045;-51
2021/03/12 11:48:03;;;;;;;13.13;5.25;;;6.00;91.80;;;;;;4962400;28;20093;-50
2021/03/12 11:50:30;;;;;;;18.45;6.10;;;6.00;92.80;;;;;;4975969;28;20042;-52
2021/03/12 11:52:56;;;;;;;16.55;6.25;;;6.00;93.10;;;;;;4966637;28;20049;-50
2021/03/12 11:55:22;;;;;;;16.98;5.70;;;6.20;93.10;;;;;;4970569;28;20049;-50
2021/03/12 11:57:49;;;;;;;13.32;5.80;;;6.20;92.60;;;;;;4973976;28;20062;-50
2021/03/12 12:00:16;;;;;;;13.57;5.68;;;6.20;92.30;;;;;;4981710;28;20093;-49
2021/03/12 12:02:46;;;;;;;13.20;5.75;;;6.30;92.00;;;;;;4978982;28;20054;-52
2021/03/12 12:05:13;;;;;;;17.15;5.88;;;6.30;92.50;;;;;;4965211;28;20058;-53
2021/03/12 12:08:20;;;;;;;14.40;5.63;;;6.30;92.40;;;;;;4961150;28;20058;-54
2021/03/12 12:10:49;;;;;;;10.10;5.18;;;6.30;92.60;;;;;;4978130;28;20047;-54
2021/03/12 12:13:14;;;;;;;10.50;5.20;;;6.20;92.70;;;;;;4981961;28;20616;-54
2021/03/12 12:16:15;;;;;;;12.32;5.97;;;6.20;92.60;;;;;;4979935;28;20058;-53
2021/03/12 12:18:40;;;;;;;15.30;6.38;;;6.20;92.70;;;;;;4961133;28;20050;-54
2021/03/12 12:21:06;;;;;;;20.27;6.18;;;6.20;92.70;;;;;;4970198;28;20606;-50
2021/03/12 12:23:33;;;;;;;14.57;6.82;;;6.20;92.50;;;;;;4966621;28;20081;-51
2021/03/12 12:25:59;;;;;;;20.42;7.38;;;6.20;92.70;;;;;;4967494;28;20070;-52
2021/03/12 12:28:54;;;;;;;16.73;7.45;;;6.30;92.90;;;;;;4969466;28;20072;-48
2021/03/12 12:31:20;;;;;;;17.55;7.32;;;6.40;92.90;;;;;;4970234;28;20161;-51
2021/03/12 12:33:46;;;;;;;16.38;7.22;;;6.40;92.80;;;;;;4986851;28;20052;-51
2021/03/12 12:36:12;;;;;;;18.27;7.63;;;6.50;92.40;;;;;;4982127;28;20042;-49
2021/03/12 12:38:39;;;;;;;16.02;7.75;;;6.60;92.70;;;;;;4947941;28;20058;-50
2021/03/12 12:41:05;;;;;;;19.77;7.65;;;6.80;92.70;;;;;;4981952;28;20680;-50
2021/03/12 12:43:31;;;;;;;18.27;7.97;;;7.00;92.70;;;;;;4975297;28;20089;-51
2021/03/12 12:45:57;;;;;;;19.95;8.02;;;7.40;91.60;;;;;;4976716;28;20766;-49
2021/03/12 12:48:23;;;;;;;18.00;6.80;;;7.80;91.40;;;;;;4979783;28;20156;-51
2021/03/12 12:50:49;;;;;;;22.15;7.30;;;8.30;90.50;;;;;;4975075;28;20038;-48
2021/03/12 12:53:15;;;;;;;12.57;6.63;;;8.20;90.20;;;;;;4981465;28;20046;-50
2021/03/12 12:55:42;;;;;;;13.93;6.55;;;8.00;89.80;;;;;;4979138;28;20563;-49
2021/03/12 12:58:18;;;;;;;14.80;6.95;;;7.80;89.60;;;;;;4983604;28;20112;-51
2021/03/12 13:01:03;;;;;;;22.90;7.70;;;7.80;90.30;;;;;;4980609;28;20439;-49
2021/03/12 13:03:29;;;;;;;19.88;7.60;;;7.80;91.10;;;;;;4958047;28;20500;-47
2021/03/12 13:05:55;;;;;;;22.83;6.47;;;7.70;90.60;;;;;;4998587;28;20302;-49
2021/03/12 13:08:21;;;;;;;14.50;5.72;;;7.70;89.60;;;;;;4998886;28;20061;-45
2021/03/12 13:10:47;;;;;;;16.98;8.43;;;7.60;88.90;;;;;;4975623;28;20043;-53
2021/03/12 13:13:14;;;;;;;16.45;7.65;;;7.60;90.00;;;;;;4957957;28;20105;-55
2021/03/12 13:15:41;;;;;;;14.30;7.28;;;7.40;90.60;;;;;;4991054;28;20060;-55
2021/03/12 13:18:08;;;;;;;16.25;6.93;;;7.30;90.40;;;;;;4992133;28;20042;-53
2021/03/12 13:20:43;;;;;;;19.83;7.28;;;7.20;90.80;;;;;;4980325;28;20514;-48
2021/03/12 13:23:09;;;;;;;18.38;6.80;;;7.00;91.60;;;;;;4999806;28;20502;-45